Quito, Ecuador
Current Conditions -  °F | °C
As of 5:00 AM on Sunday 21 Dec 2014 (Local Time) from SEQM Reporting Station
Clear Clear  
Wind Chill: 46°   Ceiling: Unl
Heat Index: 46°   Visibility: 6mi
Dew Point: 43°   Wind: 2mph
Humidity: 87%   Direction: 150°SSE
Pressure: 30.27"   Gusts: NA
Location:  0.19°S, 78.5°W
Report Text: SEQM 211000Z 15002KT CAVOK 08/06 Q1025 NOSIG RMK A3027
Loading
Personal Weather Stations






























Interactive Weather Map New forecast layout! Learn more

10-Day Weather Forecast

Advertisements
Track Severe Weather on mobile